createdAt,value
2022-10-21T00:01:08.573Z,99661.78
2022-10-21T00:03:38.028Z,99672.25
2022-10-21T00:06:06.730Z,99675.63
2022-10-21T00:08:35.446Z,99674.63
2022-10-21T00:11:06.375Z,99677.72
2022-10-21T00:13:36.683Z,99685.88
2022-10-21T00:16:12.432Z,99686.16
2022-10-21T00:18:42.905Z,99688.75
2022-10-21T00:21:14.586Z,99694.91
2022-10-21T00:23:43.480Z,99700.28
2022-10-21T00:26:13.513Z,99704.41
2022-10-21T00:28:42.284Z,99705.75
2022-10-21T00:31:13.197Z,99706.78
2022-10-21T00:33:41.762Z,99720.84
2022-10-21T00:36:16.071Z,99719.38
2022-10-21T00:38:46.237Z,99724.00
2022-10-21T00:41:16.546Z,99732.47
2022-10-21T00:43:57.166Z,99735.84
2022-10-21T00:47:05.700Z,99751.41
2022-10-21T00:49:40.934Z,99750.44
2022-10-21T00:52:22.878Z,99758.88
2022-10-21T00:54:55.968Z,99762.25
2022-10-21T00:57:26.602Z,99762.31
2022-10-21T01:00:01.882Z,99774.06
2022-10-21T01:02:31.238Z,99770.56
2022-10-21T01:05:03.303Z,99779.00
2022-10-21T01:07:32.145Z,99786.22
2022-10-21T01:10:00.436Z,99786.56
2022-10-21T01:12:46.591Z,99784.59
2022-10-21T01:15:36.516Z,99793.03
2022-10-21T01:18:42.937Z,99799.03
2022-10-21T01:21:21.976Z,99796.28
2022-10-21T01:24:27.551Z,99794.59
2022-10-21T01:27:22.874Z,99796.44
2022-10-21T01:30:07.177Z,99803.16
2022-10-21T01:32:56.855Z,99802.22
2022-10-21T01:35:50.846Z,99808.91
2022-10-21T01:38:37.587Z,99805.69
2022-10-21T01:41:20.762Z,99814.91
2022-10-21T01:44:04.059Z,99814.94
2022-10-21T01:46:56.863Z,99825.50
2022-10-21T01:49:38.264Z,99825.56
2022-10-21T01:52:08.602Z,99833.75
2022-10-21T01:54:45.741Z,99837.34
2022-10-21T01:57:18.203Z,99838.66
2022-10-21T01:59:48.425Z,99841.50
2022-10-21T02:02:18.661Z,99843.88
2022-10-21T02:04:50.914Z,99844.66
2022-10-21T02:07:19.392Z,99855.13
2022-10-21T02:09:47.671Z,99859.25
2022-10-21T02:12:17.771Z,99854.94
2022-10-21T02:14:50.793Z,99862.34
2022-10-21T02:17:22.707Z,99855.53
2022-10-21T02:19:51.479Z,99855.59
2022-10-21T02:22:23.794Z,99850.00
2022-10-21T02:25:02.409Z,99856.91
2022-10-21T02:27:30.864Z,99860.03
2022-10-21T02:30:01.940Z,99859.28
2022-10-21T02:32:39.292Z,99849.38
2022-10-21T02:35:35.675Z,99853.47
2022-10-21T02:38:31.409Z,99856.28
2022-10-21T02:41:06.857Z,99848.19
2022-10-21T02:43:41.090Z,99846.66
2022-10-21T02:46:13.783Z,99846.44
2022-10-21T02:48:46.363Z,99844.13
2022-10-21T02:51:16.198Z,99846.19
2022-10-21T02:53:45.067Z,99850.56
2022-10-21T02:56:13.408Z,99839.13
2022-10-21T02:58:41.749Z,99840.16
2022-10-21T03:01:10.207Z,99836.59
2022-10-21T03:03:38.564Z,99836.59
2022-10-21T03:06:06.988Z,99834.56
2022-10-21T03:08:35.484Z,99832.56
2022-10-21T03:11:03.816Z,99830.25
2022-10-21T03:13:32.114Z,99829.75
2022-10-21T03:16:00.565Z,99821.06
2022-10-21T03:18:28.883Z,99820.03
2022-10-21T03:20:57.232Z,99814.94
2022-10-21T03:23:25.546Z,99815.75
2022-10-21T03:25:54.042Z,99805.53
2022-10-21T03:28:22.474Z,99804.75
2022-10-21T03:30:50.780Z,99794.03
2022-10-21T03:33:19.261Z,99796.31
2022-10-21T03:35:47.585Z,99792.75
2022-10-21T03:38:16.041Z,99788.41
2022-10-21T03:40:44.393Z,99786.09
2022-10-21T03:43:12.722Z,99785.56
2022-10-21T03:45:41.092Z,99774.81
2022-10-21T03:48:09.456Z,99770.19
2022-10-21T03:50:37.780Z,99761.00
2022-10-21T03:53:13.802Z,99765.06
2022-10-21T03:55:47.364Z,99763.28
2022-10-21T03:58:15.686Z,99756.88
2022-10-21T04:00:44.002Z,99759.66
2022-10-21T04:03:12.395Z,99750.44
2022-10-21T04:05:40.735Z,99746.31
2022-10-21T04:08:09.103Z,99744.50
2022-10-21T04:10:38.305Z,99735.81
2022-10-21T04:13:06.669Z,99728.59
2022-10-21T04:15:37.884Z,99725.75
2022-10-21T04:18:07.386Z,99728.03
2022-10-21T04:20:36.020Z,99718.28
2022-10-21T04:23:04.383Z,99712.06
2022-10-21T04:25:32.749Z,99713.59
2022-10-21T04:28:01.255Z,99705.91
2022-10-21T04:30:29.594Z,99697.41
2022-10-21T04:32:57.931Z,99695.81
2022-10-21T04:35:26.224Z,99686.03
2022-10-21T04:37:54.751Z,99682.94
2022-10-21T04:40:23.532Z,99674.22
2022-10-21T04:42:51.965Z,99671.88
2022-10-21T04:45:20.336Z,99669.53
2022-10-21T04:47:48.654Z,99664.66
2022-10-21T04:50:17.089Z,99652.56
2022-10-21T04:52:45.419Z,99653.56
2022-10-21T04:55:14.049Z,99651.97
2022-10-21T04:57:43.699Z,99645.00
2022-10-21T05:00:12.823Z,99645.00
2022-10-21T05:02:41.476Z,99637.31
2022-10-21T05:05:10.519Z,99634.00
2022-10-21T05:07:38.985Z,99635.00
2022-10-21T05:10:07.620Z,99628.53
2022-10-21T05:15:04.339Z,99623.53
2022-10-21T05:17:33.362Z,99618.06
2022-10-21T05:20:01.706Z,99612.28
2022-10-21T05:22:30.058Z,99613.44
2022-10-21T05:24:58.453Z,99611.53
2022-10-21T05:27:26.817Z,99613.47
2022-10-21T05:29:55.300Z,99601.56
2022-10-21T05:32:23.699Z,99595.88
2022-10-21T05:34:52.077Z,99588.38
2022-10-21T05:37:20.444Z,99586.03
2022-10-21T05:39:48.739Z,99586.47
2022-10-21T05:42:17.470Z,99580.19
2022-10-21T05:44:45.763Z,99579.34
2022-10-21T05:47:14.038Z,99568.75
2022-10-21T05:49:42.373Z,99558.66
2022-10-21T05:52:10.777Z,99551.94
2022-10-21T05:54:39.103Z,99551.84
2022-10-21T05:57:07.503Z,99547.50
2022-10-21T05:59:35.841Z,99537.75
2022-10-21T06:02:04.222Z,99531.78
2022-10-21T06:04:36.411Z,99523.53
2022-10-21T06:07:07.528Z,99520.91
2022-10-21T06:09:35.932Z,99524.72
2022-10-21T06:12:04.296Z,99511.69
2022-10-21T06:14:32.661Z,99508.22
2022-10-21T06:17:00.974Z,99503.41
2022-10-21T06:19:31.776Z,99502.19
2022-10-21T06:22:00.400Z,99502.84
2022-10-21T06:24:28.744Z,99502.31
2022-10-21T06:26:57.308Z,99497.19
2022-10-21T06:29:26.164Z,99492.94
2022-10-21T06:31:54.609Z,99493.25
2022-10-21T06:34:23.425Z,99485.66
2022-10-21T06:36:51.785Z,99475.13
2022-10-21T06:39:20.142Z,99475.00
2022-10-21T06:41:48.461Z,99461.56
2022-10-21T06:44:16.807Z,99449.97
2022-10-21T06:46:45.291Z,99448.56
2022-10-21T06:49:13.662Z,99439.22
2022-10-21T06:51:42.038Z,99431.22
2022-10-21T06:54:10.431Z,99431.66
2022-10-21T06:56:40.554Z,99424.38
2022-10-21T06:59:08.898Z,99418.94
2022-10-21T07:01:55.202Z,99413.53
2022-10-21T07:04:26.066Z,99401.50
2022-10-21T07:06:54.453Z,99388.13
2022-10-21T07:09:23.049Z,99396.34
2022-10-21T07:11:51.520Z,99391.38
2022-10-21T07:14:20.031Z,99393.75
2022-10-21T07:16:49.262Z,99389.09
2022-10-21T07:19:17.626Z,99393.31
2022-10-21T07:21:46.005Z,99384.00
2022-10-21T07:24:16.281Z,99381.19
2022-10-21T07:26:45.930Z,99369.13
2022-10-21T07:29:14.337Z,99371.19
2022-10-21T07:31:42.737Z,99359.22
2022-10-21T07:34:13.682Z,99366.38
2022-10-21T07:36:44.974Z,99372.50
2022-10-21T07:39:17.508Z,99372.38
2022-10-21T07:41:49.158Z,99367.69
2022-10-21T07:44:18.771Z,99352.06
2022-10-21T07:46:48.455Z,99354.13
2022-10-21T07:49:18.495Z,99358.25
2022-10-21T07:51:47.853Z,99356.94
2022-10-21T07:54:16.454Z,99344.78
2022-10-21T07:56:48.186Z,99346.72
2022-10-21T07:59:19.270Z,99350.94
2022-10-21T08:01:51.698Z,99351.69
2022-10-21T08:04:22.639Z,99346.03
2022-10-21T08:06:51.303Z,99350.94
2022-10-21T08:09:19.818Z,99345.28
2022-10-21T08:11:48.226Z,99341.69
2022-10-21T08:14:17.341Z,99341.47
2022-10-21T08:16:46.305Z,99338.25
2022-10-21T08:19:30.470Z,99341.41
2022-10-21T08:22:00.223Z,99335.31
2022-10-21T08:24:29.463Z,99327.94
2022-10-21T08:26:57.889Z,99333.38
2022-10-21T08:29:26.561Z,99337.50
2022-10-21T08:31:54.929Z,99336.00
2022-10-21T08:34:23.404Z,99332.72
2022-10-21T08:36:51.721Z,99338.16
2022-10-21T08:39:25.901Z,99332.28
2022-10-21T08:42:07.346Z,99330.78
2022-10-21T08:44:56.358Z,99337.94
2022-10-21T08:47:34.251Z,99331.31
2022-10-21T08:50:19.867Z,99334.69
2022-10-21T08:52:53.214Z,99338.81
2022-10-21T08:55:25.327Z,99338.38
2022-10-21T08:57:56.738Z,99337.41
2022-10-21T09:00:30.259Z,99340.34
2022-10-21T09:03:27.568Z,99344.25
2022-10-21T09:06:12.917Z,99337.94
2022-10-21T09:08:51.425Z,99335.97
2022-10-21T09:11:27.873Z,99347.16
2022-10-21T09:14:11.183Z,99350.09
2022-10-21T09:17:11.149Z,99344.31
2022-10-21T09:20:24.438Z,99346.47
2022-10-21T09:23:23.153Z,99349.19
2022-10-21T09:25:57.429Z,99354.16
2022-10-21T09:28:27.601Z,99354.97
2022-10-21T09:30:57.027Z,99353.78
2022-10-21T09:33:35.523Z,99361.03
2022-10-21T09:36:06.697Z,99360.59
2022-10-21T09:38:45.945Z,99358.31
2022-10-21T09:41:19.377Z,99367.84
2022-10-21T09:43:50.212Z,99371.00
2022-10-21T09:46:19.771Z,99375.41
2022-10-21T09:51:46.415Z,99374.06
2022-10-21T09:54:28.736Z,99372.63
2022-10-21T09:58:01.634Z,99387.09
2022-10-21T10:00:48.519Z,99388.22
2022-10-21T10:03:42.317Z,99392.63
2022-10-21T10:06:11.162Z,99395.84
2022-10-21T10:08:48.232Z,99397.44
2022-10-21T10:11:20.154Z,99396.72
2022-10-21T10:13:53.204Z,99397.56
2022-10-21T10:16:32.737Z,99394.81
2022-10-21T10:19:25.220Z,99409.97
2022-10-21T10:22:18.269Z,99416.44
2022-10-21T10:24:46.840Z,99417.00
2022-10-21T10:27:27.589Z,99418.56
2022-10-21T10:30:00.813Z,99421.44
2022-10-21T10:32:35.450Z,99417.41
2022-10-21T10:35:10.153Z,99419.75
2022-10-21T10:40:23.595Z,99431.88
2022-10-21T10:43:01.990Z,99428.38
2022-10-21T10:45:30.833Z,99425.59
2022-10-21T10:48:07.846Z,99434.09
2022-10-21T10:50:39.167Z,99432.84
2022-10-21T10:53:24.511Z,99433.66
2022-10-21T10:56:17.104Z,99436.00
2022-10-21T10:58:54.382Z,99435.50
2022-10-21T11:01:31.903Z,99445.53
2022-10-21T11:04:24.389Z,99449.16
2022-10-21T11:07:04.353Z,99447.63
2022-10-21T11:09:35.386Z,99451.25
2022-10-21T11:12:13.837Z,99454.88
2022-10-21T11:14:42.388Z,99460.03
2022-10-21T11:17:14.364Z,99461.84
2022-10-21T11:19:54.930Z,99466.97
2022-10-21T11:22:34.779Z,99470.06
2022-10-21T11:25:34.303Z,99474.41
2022-10-21T11:28:31.583Z,99479.03
2022-10-21T11:31:29.696Z,99487.47
2022-10-21T11:34:36.336Z,99491.84
2022-10-21T11:37:29.648Z,99497.72
2022-10-21T11:40:14.086Z,99505.16
2022-10-21T11:42:46.345Z,99502.63
2022-10-21T11:45:35.997Z,99518.47
2022-10-21T11:48:13.919Z,99511.03
2022-10-21T11:51:06.404Z,99517.69
2022-10-21T11:53:40.590Z,99516.16
2022-10-21T11:56:39.510Z,99520.25
2022-10-21T11:59:34.319Z,99530.47
2022-10-21T12:02:02.676Z,99528.19
2022-10-21T12:04:40.632Z,99534.81
2022-10-21T12:07:23.907Z,99535.88
2022-10-21T12:10:13.023Z,99548.91
2022-10-21T12:12:48.712Z,99561.94
2022-10-21T12:15:43.334Z,99565.78
2022-10-21T12:18:18.753Z,99576.00
2022-10-21T12:20:50.135Z,99578.56
2022-10-21T12:23:22.968Z,99585.41
2022-10-21T12:26:09.532Z,99592.81
2022-10-21T12:29:04.613Z,99604.31
2022-10-21T12:31:35.586Z,99602.53
2022-10-21T12:34:04.878Z,99606.38
2022-10-21T12:36:52.373Z,99618.13
2022-10-21T12:39:36.210Z,99624.25
2022-10-21T12:42:15.077Z,99632.41
2022-10-21T12:44:51.788Z,99630.13
2022-10-21T12:47:44.148Z,99641.88
2022-10-21T12:50:18.193Z,99642.38
2022-10-21T12:52:49.902Z,99650.81
2022-10-21T12:55:28.212Z,99646.97
2022-10-21T12:58:04.281Z,99658.22
2022-10-21T13:00:32.662Z,99659.97
2022-10-21T13:03:08.928Z,99659.72
2022-10-21T13:05:40.048Z,99658.94
2022-10-21T13:08:28.567Z,99670.69
2022-10-21T13:11:08.362Z,99671.97
2022-10-21T13:13:46.502Z,99676.81
2022-10-21T13:16:20.589Z,99676.03
2022-10-21T13:18:52.352Z,99681.66
2022-10-21T13:21:40.256Z,99691.59
2022-10-21T13:24:08.601Z,99685.22
2022-10-21T13:26:49.831Z,99695.69
2022-10-21T13:29:35.243Z,99696.19
2022-10-21T13:32:15.721Z,99707.44
2022-10-21T13:34:55.620Z,99709.47
2022-10-21T13:37:41.229Z,99719.41
2022-10-21T13:40:19.405Z,99720.94
2022-10-21T13:43:15.236Z,99727.31
2022-10-21T13:45:58.641Z,99730.38
2022-10-21T13:48:27.245Z,99724.78
2022-10-21T13:50:55.871Z,99725.53
2022-10-21T13:53:30.291Z,99737.53
2022-10-21T13:56:04.548Z,99738.03
2022-10-21T13:58:39.999Z,99740.34
2022-10-21T14:01:13.272Z,99739.56
2022-10-21T14:03:43.161Z,99746.47
2022-10-21T14:06:20.034Z,99746.47
2022-10-21T14:08:49.583Z,99742.13
2022-10-21T14:11:37.390Z,99746.97
2022-10-21T14:14:10.537Z,99745.44
2022-10-21T14:16:50.862Z,99754.38
2022-10-21T14:19:24.373Z,99756.38
2022-10-21T14:21:55.955Z,99754.09
2022-10-21T14:24:26.953Z,99760.97
2022-10-21T14:26:56.675Z,99760.72
2022-10-21T14:29:31.803Z,99764.03
2022-10-21T14:32:01.608Z,99759.19
2022-10-21T14:34:32.797Z,99769.91
2022-10-21T14:37:09.312Z,99771.44
2022-10-21T14:39:40.850Z,99774.25
2022-10-21T14:42:30.116Z,99767.34
2022-10-21T14:45:05.793Z,99772.47
2022-10-21T14:47:34.201Z,99771.22
2022-10-21T14:50:02.831Z,99769.16
2022-10-21T14:52:47.394Z,99773.50
2022-10-21T14:55:18.601Z,99770.69
2022-10-21T14:57:55.629Z,99769.94
2022-10-21T15:00:35.679Z,99768.66
2022-10-21T15:03:04.537Z,99769.16
2022-10-21T15:05:42.949Z,99778.84
2022-10-21T15:08:16.602Z,99772.97
2022-10-21T15:10:45.165Z,99769.38
2022-10-21T15:13:20.917Z,99764.78
2022-10-21T15:15:54.016Z,99766.56
2022-10-21T15:18:33.176Z,99759.44
2022-10-21T15:21:04.232Z,99762.50
2022-10-21T15:23:36.504Z,99763.00
2022-10-21T15:26:13.511Z,99760.44
2022-10-21T15:28:42.906Z,99759.38
2022-10-21T15:31:31.378Z,99761.16
2022-10-21T15:33:59.723Z,99766.53
2022-10-21T15:36:28.115Z,99759.88
2022-10-21T15:38:56.439Z,99765.22
2022-10-21T15:41:30.552Z,99762.94
2022-10-21T15:44:05.248Z,99769.56
2022-10-21T15:46:36.485Z,99762.16
2022-10-21T15:49:16.833Z,99765.22
2022-10-21T15:51:45.326Z,99766.22
2022-10-21T15:54:14.301Z,99775.13
2022-10-21T15:56:47.538Z,99764.91
2022-10-21T15:59:25.781Z,99768.22
2022-10-21T16:01:56.286Z,99775.09
2022-10-21T16:04:25.798Z,99766.41
2022-10-21T16:06:57.241Z,99766.91
2022-10-21T16:09:29.021Z,99767.94
2022-10-21T16:12:01.081Z,99761.28
2022-10-21T16:14:31.277Z,99759.50
2022-10-21T16:17:00.591Z,99759.22
2022-10-21T16:19:29.756Z,99744.97
2022-10-21T16:21:58.498Z,99753.06
2022-10-21T16:24:26.921Z,99749.75
2022-10-21T16:26:55.299Z,99749.75
2022-10-21T16:29:25.892Z,99757.09
2022-10-21T16:31:54.482Z,99755.56
2022-10-21T16:34:22.878Z,99745.63
2022-10-21T16:36:51.301Z,99738.47
2022-10-21T16:39:26.401Z,99746.13
2022-10-21T16:41:54.965Z,99744.59
2022-10-21T16:44:23.449Z,99740.25
2022-10-21T16:46:56.492Z,99743.06
2022-10-21T16:49:27.895Z,99739.22
2022-10-21T16:51:58.381Z,99733.34
2022-10-21T16:54:26.681Z,99738.69
2022-10-21T16:56:56.089Z,99735.13
2022-10-21T16:59:24.960Z,99746.84
2022-10-21T17:01:53.304Z,99734.88
2022-10-21T17:04:21.636Z,99741.75
2022-10-21T17:06:50.098Z,99731.81
2022-10-21T17:09:20.353Z,99733.06
2022-10-21T17:11:48.706Z,99731.53
2022-10-21T17:14:21.010Z,99720.84
2022-10-21T17:16:49.393Z,99720.06
2022-10-21T17:19:17.768Z,99724.13
2022-10-21T17:21:47.571Z,99714.69
2022-10-21T17:24:22.511Z,99713.13
2022-10-21T17:26:51.065Z,99709.56
2022-10-21T17:29:19.379Z,99706.50
2022-10-21T17:31:47.723Z,99702.66
2022-10-21T17:34:29.033Z,99694.75
2022-10-21T17:36:57.882Z,99695.28
2022-10-21T17:39:27.048Z,99686.88
2022-10-21T17:41:55.853Z,99686.09
2022-10-21T17:44:24.197Z,99678.72
2022-10-21T17:46:55.425Z,99675.91
2022-10-21T17:49:25.453Z,99664.47
2022-10-21T17:51:53.896Z,99661.94
2022-10-21T17:54:26.589Z,99648.22
2022-10-21T17:56:58.299Z,99647.44
2022-10-21T17:59:27.683Z,99640.56
2022-10-21T18:01:56.068Z,99636.50
2022-10-21T18:04:24.621Z,99646.44
2022-10-21T18:06:54.349Z,99639.56
2022-10-21T18:09:22.804Z,99638.81
2022-10-21T18:11:51.284Z,99638.03
2022-10-21T18:14:19.690Z,99633.69
2022-10-21T18:16:47.990Z,99625.78
2022-10-21T18:19:17.315Z,99621.19
2022-10-21T18:21:46.059Z,99617.84
2022-10-21T18:24:14.464Z,99612.75
2022-10-21T18:26:42.810Z,99610.47
2022-10-21T18:29:11.246Z,99605.34
2022-10-21T18:31:40.286Z,99601.53
2022-10-21T18:34:10.295Z,99610.44
2022-10-21T18:36:39.263Z,99601.78
2022-10-21T18:39:08.304Z,99608.38
2022-10-21T18:41:37.653Z,99610.41
2022-10-21T18:44:11.623Z,99601.25
2022-10-21T18:46:42.184Z,99602.53
2022-10-21T18:49:13.876Z,99595.91
2022-10-21T18:51:42.325Z,99592.59
2022-10-21T18:54:10.663Z,99592.09
2022-10-21T18:56:39.066Z,99593.13
2022-10-21T18:59:07.431Z,99589.06
2022-10-21T19:01:35.839Z,99581.41
2022-10-21T19:04:04.314Z,99586.50
2022-10-21T19:06:42.068Z,99580.91
2022-10-21T19:09:18.100Z,99575.56
2022-10-21T19:11:47.922Z,99575.06
2022-10-21T19:14:17.388Z,99576.59
2022-10-21T19:16:47.420Z,99569.22
2022-10-21T19:19:17.491Z,99566.41
2022-10-21T19:21:45.891Z,99559.53
2022-10-21T19:24:14.361Z,99564.38
2022-10-21T19:26:45.751Z,99564.88
2022-10-21T19:29:17.755Z,99559.00
2022-10-21T19:34:23.357Z,99560.03
2022-10-21T19:36:51.793Z,99565.38
2022-10-21T19:39:20.716Z,99560.28
2022-10-21T19:41:49.509Z,99560.53
2022-10-21T19:44:18.335Z,99552.13
2022-10-21T19:46:47.007Z,99555.94
2022-10-21T19:49:16.112Z,99560.00
2022-10-21T19:51:44.407Z,99556.94
2022-10-21T19:54:14.638Z,99557.19
2022-10-21T19:56:43.446Z,99559.97
2022-10-21T19:59:12.366Z,99563.28
2022-10-21T20:01:40.909Z,99550.06
2022-10-21T20:04:09.403Z,99556.41
2022-10-21T20:06:39.555Z,99558.44
2022-10-21T20:09:13.928Z,99567.88
2022-10-21T20:11:43.293Z,99567.13
2022-10-21T20:14:14.473Z,99563.03
2022-10-21T20:16:45.248Z,99561.78
2022-10-21T20:19:13.690Z,99565.34
2022-10-21T20:21:42.965Z,99564.84
2022-10-21T20:24:15.076Z,99558.72
2022-10-21T20:26:45.292Z,99552.63
2022-10-21T20:29:16.342Z,99547.28
2022-10-21T20:31:44.775Z,99557.22
2022-10-21T20:34:16.298Z,99551.09
2022-10-21T20:36:45.993Z,99546.25
2022-10-21T20:39:14.615Z,99553.41
2022-10-21T20:41:43.069Z,99549.31
2022-10-21T20:44:20.124Z,99548.56
2022-10-21T20:46:48.584Z,99542.97
2022-10-21T20:49:16.997Z,99545.00
2022-10-21T20:51:45.442Z,99548.56
2022-10-21T20:54:18.152Z,99554.16
2022-10-21T20:56:46.807Z,99551.88
2022-10-21T20:59:16.758Z,99549.06
2022-10-21T21:01:47.800Z,99549.56
2022-10-21T21:04:18.315Z,99550.84
2022-10-21T21:06:48.995Z,99551.34
2022-10-21T21:09:38.059Z,99555.94
2022-10-21T21:12:08.182Z,99554.91
2022-10-21T21:14:36.589Z,99566.88
2022-10-21T21:17:06.013Z,99567.13
2022-10-21T21:19:34.866Z,99569.16
2022-10-21T21:22:04.750Z,99569.38
2022-10-21T21:24:33.509Z,99570.63
2022-10-21T21:27:01.959Z,99571.41
2022-10-21T21:29:30.371Z,99573.19
2022-10-21T21:31:58.666Z,99573.94
2022-10-21T21:34:27.051Z,99568.34
2022-10-21T21:36:55.374Z,99577.50
2022-10-21T21:39:23.788Z,99579.81
2022-10-21T21:41:52.273Z,99572.94
2022-10-21T21:44:20.581Z,99578.53
2022-10-21T21:46:48.910Z,99572.94
2022-10-21T21:49:17.253Z,99572.94
2022-10-21T21:51:45.567Z,99585.69
2022-10-21T21:54:13.944Z,99581.34
2022-10-21T21:56:42.306Z,99592.81
2022-10-21T21:59:10.793Z,99592.06
2022-10-21T22:01:39.153Z,99601.22
2022-10-21T22:04:07.938Z,99599.19
2022-10-21T22:06:39.360Z,99606.31
2022-10-21T22:09:12.896Z,99610.41
2022-10-21T22:11:41.382Z,99616.00
2022-10-21T22:14:10.439Z,99626.44
2022-10-21T22:16:38.903Z,99631.28
2022-10-21T22:19:07.307Z,99637.63
2022-10-21T22:21:35.681Z,99643.25
2022-10-21T22:24:04.067Z,99640.44
2022-10-21T22:26:32.421Z,99648.06
2022-10-21T22:29:00.723Z,99648.84
2022-10-21T22:31:30.707Z,99649.59
2022-10-21T22:34:00.746Z,99653.94
2022-10-21T22:36:29.853Z,99651.91
2022-10-21T22:38:58.421Z,99658.28
2022-10-21T22:41:27.613Z,99656.75
2022-10-21T22:43:56.317Z,99665.91
2022-10-21T22:46:39.923Z,99660.31
2022-10-21T22:49:08.457Z,99661.84
2022-10-21T22:51:36.781Z,99668.22
2022-10-21T22:54:11.625Z,99673.03
2022-10-21T22:56:43.681Z,99671.00
2022-10-21T22:59:12.065Z,99671.00
2022-10-21T23:01:40.451Z,99672.28
2022-10-21T23:04:08.855Z,99680.19
2022-10-21T23:06:37.329Z,99678.66
2022-10-21T23:09:06.596Z,99678.91
2022-10-21T23:11:35.794Z,99685.28
2022-10-21T23:14:08.703Z,99670.78
2022-10-21T23:16:38.051Z,99677.13
2022-10-21T23:19:08.345Z,99679.19
2022-10-21T23:21:37.736Z,99694.72
2022-10-21T23:24:07.307Z,99693.19
2022-10-21T23:26:36.748Z,99684.78
2022-10-21T23:29:06.098Z,99693.44
2022-10-21T23:31:34.513Z,99700.31
2022-10-21T23:34:03.845Z,99695.47
2022-10-21T23:36:32.309Z,99703.13
2022-10-21T23:39:00.626Z,99693.72
2022-10-21T23:41:29.258Z,99705.94
2022-10-21T23:43:57.581Z,99708.25
2022-10-21T23:48:59.138Z,99708.00
2022-10-21T23:51:27.560Z,99717.44
2022-10-21T23:53:55.963Z,99718.47
2022-10-21T23:56:24.348Z,99721.53
2022-10-21T23:58:53.704Z,99725.41
